Time;durP1;ratioP1;P1;durP2;ratioP2;P2;SDS_P1;SDS_P2;PMS_P1;PMS_P2;Temp;Humidity;BMP_temperature;BMP_pressure;BME280_temperature;BME280_humidity;BME280_pressure;Samples;Min_cycle;Max_cycle;Signal;HPM_P1;HPM_P2
2023/05/28 00:01:50;;;;;;;18.00;9.85;;;11.70;99.90;;;;;;5035709;28;20407;-60
2023/05/28 00:04:16;;;;;;;16.75;9.75;;;11.70;99.90;;;;;;5037124;28;20392;-60
2023/05/28 00:06:43;;;;;;;22.38;10.18;;;11.70;99.90;;;;;;5036801;28;20047;-60
2023/05/28 00:09:10;;;;;;;22.60;9.63;;;11.60;99.90;;;;;;5036592;28;20041;-60
2023/05/28 00:11:37;;;;;;;18.30;10.18;;;11.60;99.90;;;;;;5036730;28;20483;-59
2023/05/28 00:14:04;;;;;;;28.05;11.13;;;11.60;99.90;;;;;;5036816;28;20050;-59
2023/05/28 00:16:31;;;;;;;19.98;10.57;;;11.50;99.90;;;;;;5036279;28;20435;-60
2023/05/28 00:18:57;;;;;;;22.08;10.88;;;11.50;99.90;;;;;;5036401;28;20101;-60
2023/05/28 00:21:26;;;;;;;19.42;10.88;;;11.40;99.90;;;;;;5036102;28;20061;-60
2023/05/28 00:23:53;;;;;;;23.52;11.65;;;11.30;99.90;;;;;;5036273;28;20069;-60
2023/05/28 00:26:19;;;;;;;22.45;12.30;;;11.30;99.90;;;;;;5035951;28;20052;-59
2023/05/28 00:28:48;;;;;;;20.92;12.55;;;11.20;99.90;;;;;;5035194;28;20038;-60
2023/05/28 00:31:15;;;;;;;26.10;13.70;;;11.20;99.90;;;;;;5035206;28;20054;-61
2023/05/28 00:33:43;;;;;;;26.25;13.60;;;11.20;99.90;;;;;;5035868;28;20433;-61
2023/05/28 00:36:10;;;;;;;24.67;13.20;;;11.10;99.90;;;;;;5036045;28;20069;-59
2023/05/28 00:38:37;;;;;;;28.40;15.02;;;11.10;99.90;;;;;;5035871;28;20378;-60
2023/05/28 00:41:04;;;;;;;32.97;16.95;;;11.10;99.90;;;;;;5034610;28;20073;-60
2023/05/28 00:43:35;;;;;;;28.40;15.45;;;11.00;99.90;;;;;;5034444;28;20046;-59
2023/05/28 00:46:02;;;;;;;25.50;14.13;;;11.00;99.90;;;;;;5034449;28;20065;-59
2023/05/28 00:48:28;;;;;;;24.80;13.98;;;11.00;99.90;;;;;;5034973;28;20041;-59
2023/05/28 00:50:55;;;;;;;24.58;13.05;;;10.90;99.90;;;;;;5035693;28;20081;-60
2023/05/28 00:53:22;;;;;;;24.52;13.15;;;10.90;99.90;;;;;;5035971;28;20049;-60
2023/05/28 00:55:49;;;;;;;19.40;10.65;;;10.80;99.90;;;;;;5035865;28;20373;-59
2023/05/28 00:58:19;;;;;;;17.35;9.35;;;10.80;99.90;;;;;;5018395;28;20141;-60
2023/05/28 01:00:46;;;;;;;19.25;9.35;;;10.70;99.90;;;;;;5034136;28;20042;-61
2023/05/28 01:03:12;;;;;;;21.58;9.75;;;10.70;99.90;;;;;;5034718;28;20041;-60
2023/05/28 01:05:39;;;;;;;18.52;8.90;;;10.70;99.90;;;;;;5035177;28;20053;-59
2023/05/28 01:08:06;;;;;;;18.77;9.63;;;10.60;99.90;;;;;;5035635;28;20045;-59
2023/05/28 01:10:33;;;;;;;15.93;9.38;;;10.50;99.90;;;;;;5035638;28;20524;-59
2023/05/28 01:13:00;;;;;;;16.70;9.57;;;10.50;99.90;;;;;;5035691;28;20476;-59
2023/05/28 01:15:27;;;;;;;16.42;8.88;;;10.40;99.90;;;;;;5035269;28;20088;-60
2023/05/28 01:17:55;;;;;;;16.63;9.35;;;10.30;99.90;;;;;;5034469;28;20041;-60
2023/05/28 01:20:23;;;;;;;15.82;9.43;;;10.30;99.90;;;;;;5034008;28;20057;-60
2023/05/28 01:22:50;;;;;;;15.40;8.93;;;10.30;99.90;;;;;;5033736;28;20049;-59
2023/05/28 01:25:17;;;;;;;16.55;8.57;;;10.30;99.90;;;;;;5034399;28;20117;-59
2023/05/28 01:27:44;;;;;;;20.27;10.32;;;10.30;99.90;;;;;;5033866;28;20041;-59
2023/05/28 01:30:12;;;;;;;17.73;9.57;;;10.30;99.90;;;;;;5033467;28;20091;-59
2023/05/28 01:32:40;;;;;;;18.20;9.20;;;10.30;99.90;;;;;;5033979;28;20037;-59
2023/05/28 01:35:07;;;;;;;17.52;8.85;;;10.30;99.90;;;;;;5035292;28;20439;-57
2023/05/28 01:37:35;;;;;;;17.67;9.20;;;10.30;99.90;;;;;;5033952;28;20049;-59
2023/05/28 01:40:02;;;;;;;16.42;9.55;;;10.20;99.90;;;;;;5033303;28;20111;-59
2023/05/28 01:42:29;;;;;;;17.20;8.40;;;10.20;99.90;;;;;;5034826;28;20120;-59
2023/05/28 01:44:56;;;;;;;18.25;8.57;;;10.10;99.90;;;;;;5034549;28;20112;-59
2023/05/28 01:47:23;;;;;;;18.15;8.60;;;10.10;99.90;;;;;;5033143;28;20061;-59
2023/05/28 01:49:50;;;;;;;15.63;8.30;;;10.10;99.90;;;;;;5035016;28;20052;-59
2023/05/28 01:52:17;;;;;;;17.33;8.98;;;10.10;99.90;;;;;;5033454;28;20065;-59
2023/05/28 01:54:44;;;;;;;17.02;8.35;;;10.00;99.90;;;;;;5033662;28;20046;-60
2023/05/28 01:57:11;;;;;;;18.00;8.50;;;10.00;99.90;;;;;;5033110;28;20045;-59
2023/05/28 01:59:38;;;;;;;15.32;8.52;;;10.00;99.90;;;;;;5032913;28;20107;-59
2023/05/28 02:02:05;;;;;;;16.25;8.15;;;10.00;99.90;;;;;;5032642;28;20440;-60
2023/05/28 02:04:33;;;;;;;15.57;8.90;;;9.90;99.90;;;;;;5032904;28;20053;-59
2023/05/28 02:07:02;;;;;;;17.00;8.45;;;9.90;99.90;;;;;;5033010;28;20037;-59
2023/05/28 02:09:29;;;;;;;16.85;9.40;;;9.90;99.90;;;;;;5033413;28;20056;-59
2023/05/28 02:11:58;;;;;;;17.23;9.30;;;9.80;99.90;;;;;;5034237;28;20045;-59
2023/05/28 02:14:25;;;;;;;14.90;8.82;;;9.80;99.90;;;;;;5034381;28;20441;-59
2023/05/28 02:16:53;;;;;;;17.20;9.63;;;9.70;99.90;;;;;;5032987;28;20384;-58
2023/05/28 02:19:20;;;;;;;13.75;8.32;;;9.70;99.90;;;;;;5033359;28;20046;-59
2023/05/28 02:21:47;;;;;;;15.88;9.20;;;9.60;99.90;;;;;;5033769;28;20056;-59
2023/05/28 02:24:13;;;;;;;15.68;8.52;;;9.60;99.90;;;;;;5032657;28;20042;-60
2023/05/28 02:26:41;;;;;;;14.20;9.07;;;9.60;99.90;;;;;;5032490;28;20045;-60
2023/05/28 02:29:08;;;;;;;17.13;9.07;;;9.60;99.90;;;;;;5034066;28;20041;-59
2023/05/28 02:31:35;;;;;;;15.48;8.55;;;9.50;99.90;;;;;;5032923;28;20095;-58
2023/05/28 02:34:02;;;;;;;15.48;8.55;;;9.50;99.90;;;;;;5033946;28;20139;-59
2023/05/28 02:36:29;;;;;;;15.07;8.68;;;9.50;99.90;;;;;;5032297;28;20455;-59
2023/05/28 02:38:57;;;;;;;17.63;9.75;;;9.40;99.90;;;;;;5032492;28;20088;-59
2023/05/28 02:41:23;;;;;;;13.65;8.32;;;9.40;99.90;;;;;;5033920;28;20047;-60
2023/05/28 02:43:52;;;;;;;15.98;7.78;;;9.40;99.90;;;;;;5032634;28;20107;-59
2023/05/28 02:46:19;;;;;;;15.27;8.40;;;9.40;99.90;;;;;;5032130;28;20497;-57
2023/05/28 02:48:47;;;;;;;13.68;8.07;;;9.30;99.90;;;;;;5032714;28;20037;-59
2023/05/28 02:51:17;;;;;;;15.30;8.48;;;9.30;99.90;;;;;;5032193;28;20484;-55
2023/05/28 02:53:45;;;;;;;15.13;8.38;;;9.30;99.90;;;;;;5034200;28;20041;-59
2023/05/28 02:56:12;;;;;;;14.57;8.18;;;9.20;99.90;;;;;;5032044;28;20132;-59
2023/05/28 02:58:43;;;;;;;12.85;8.20;;;9.20;99.90;;;;;;5032259;28;20049;-58
2023/05/28 03:01:10;;;;;;;16.00;8.45;;;9.20;99.90;;;;;;5033308;28;20079;-59
2023/05/28 03:03:37;;;;;;;13.05;7.63;;;9.10;99.90;;;;;;5031992;28;20046;-62
2023/05/28 03:06:04;;;;;;;12.93;8.52;;;9.10;99.90;;;;;;5032045;28;20049;-59
2023/05/28 03:08:37;;;;;;;10.93;7.88;;;9.10;99.90;;;;;;5031981;28;20060;-58
2023/05/28 03:11:04;;;;;;;11.75;7.45;;;9.10;99.90;;;;;;5032284;28;20092;-58
2023/05/28 03:13:31;;;;;;;11.30;7.50;;;9.00;99.90;;;;;;5031948;28;20060;-59
2023/05/28 03:15:58;;;;;;;14.52;8.43;;;9.00;99.90;;;;;;5036372;28;20052;-60
2023/05/28 03:18:26;;;;;;;14.70;9.43;;;9.00;99.90;;;;;;5036029;28;20377;-59
2023/05/28 03:20:53;;;;;;;15.98;8.88;;;8.90;99.90;;;;;;5035897;28;20057;-59
2023/05/28 03:23:20;;;;;;;16.20;9.40;;;8.90;99.90;;;;;;5035963;28;20092;-56
2023/05/28 03:26:07;;;;;;;14.05;9.15;;;8.90;99.90;;;;;;5036951;28;20065;-59
2023/05/28 03:28:34;;;;;;;16.17;8.98;;;8.80;99.90;;;;;;5036278;28;20053;-58
2023/05/28 03:31:36;;;;;;;17.98;9.80;;;8.80;99.90;;;;;;5032668;28;20454;-59
2023/05/28 03:34:03;;;;;;;16.92;9.18;;;8.80;99.90;;;;;;5036243;28;20072;-59
2023/05/28 03:36:30;;;;;;;16.38;9.48;;;8.80;99.90;;;;;;5035693;28;20507;-59
2023/05/28 03:38:57;;;;;;;17.05;9.38;;;8.80;99.90;;;;;;5037424;28;20045;-58
2023/05/28 03:41:25;;;;;;;20.02;9.52;;;8.80;99.90;;;;;;5019554;28;20280;-59
2023/05/28 03:43:53;;;;;;;15.88;8.68;;;8.80;99.90;;;;;;5035857;28;20493;-58
2023/05/28 03:46:19;;;;;;;14.32;8.57;;;8.70;99.90;;;;;;5035388;28;20088;-54
2023/05/28 03:48:46;;;;;;;19.17;10.25;;;8.70;99.90;;;;;;5035708;28;20054;-59
2023/05/28 03:51:13;;;;;;;12.20;8.77;;;8.70;99.90;;;;;;5035433;28;20388;-58
2023/05/28 03:53:40;;;;;;;16.42;8.88;;;8.70;99.90;;;;;;5035371;28;20491;-59
2023/05/28 03:56:07;;;;;;;14.82;9.98;;;8.70;99.90;;;;;;5036569;28;20116;-59
2023/05/28 03:58:34;;;;;;;17.08;9.02;;;8.70;99.90;;;;;;5035732;28;20073;-58
2023/05/28 04:01:00;;;;;;;19.48;10.10;;;8.60;99.90;;;;;;5035256;28;20049;-59
2023/05/28 04:03:27;;;;;;;13.38;8.75;;;8.60;99.90;;;;;;5035526;28;20103;-59
2023/05/28 04:05:55;;;;;;;18.88;8.93;;;8.60;99.90;;;;;;5035092;28;20045;-56
2023/05/28 04:08:22;;;;;;;14.80;9.20;;;8.50;99.90;;;;;;5036540;28;20116;-57
2023/05/28 04:10:49;;;;;;;13.38;9.43;;;8.50;99.90;;;;;;5035306;28;20038;-57
2023/05/28 04:13:17;;;;;;;17.50;8.88;;;8.50;99.90;;;;;;5035401;28;20049;-59
2023/05/28 04:15:43;;;;;;;18.70;8.65;;;8.50;99.90;;;;;;5035423;28;20164;-57
2023/05/28 04:18:10;;;;;;;15.30;8.63;;;8.50;99.90;;;;;;5035059;28;20037;-59
2023/05/28 04:20:37;;;;;;;16.58;9.00;;;8.50;99.90;;;;;;5035187;28;20451;-59
2023/05/28 04:23:05;;;;;;;17.58;11.07;;;8.50;99.90;;;;;;5036398;28;20492;-57
2023/05/28 04:25:32;;;;;;;12.82;9.30;;;8.50;99.90;;;;;;5034592;28;20037;-58
2023/05/28 04:28:00;;;;;;;17.65;8.95;;;8.50;99.90;;;;;;5036266;28;20169;-58
2023/05/28 04:30:27;;;;;;;14.98;9.48;;;8.40;99.90;;;;;;5034623;28;20061;-56
2023/05/28 04:32:56;;;;;;;15.43;8.75;;;8.50;99.90;;;;;;5035117;28;20046;-57
2023/05/28 04:35:22;;;;;;;14.57;8.93;;;8.50;99.90;;;;;;5034713;28;20044;-58
2023/05/28 04:37:51;;;;;;;21.20;9.85;;;8.50;99.90;;;;;;5034845;28;20468;-56
2023/05/28 04:40:18;;;;;;;14.48;9.40;;;8.60;99.90;;;;;;5035204;28;20132;-57
2023/05/28 04:42:47;;;;;;;15.23;9.30;;;8.60;99.90;;;;;;5035030;28;20053;-58
2023/05/28 04:45:14;;;;;;;16.52;9.95;;;8.60;99.90;;;;;;5035127;28;20041;-57
2023/05/28 04:47:44;;;;;;;15.52;9.52;;;8.60;99.90;;;;;;5018808;28;20099;-59
2023/05/28 04:50:10;;;;;;;16.65;9.63;;;8.60;99.90;;;;;;5035747;28;20438;-59
2023/05/28 04:52:37;;;;;;;17.33;9.82;;;8.60;99.90;;;;;;5018308;28;20132;-58
2023/05/28 04:55:04;;;;;;;12.70;9.05;;;8.70;99.90;;;;;;5035711;28;20113;-58
2023/05/28 04:57:32;;;;;;;16.50;9.55;;;8.80;99.90;;;;;;5034408;28;20392;-57
2023/05/28 05:00:00;;;;;;;17.38;9.82;;;8.80;99.90;;;;;;5034229;28;20576;-59
2023/05/28 05:02:28;;;;;;;15.95;9.77;;;8.90;99.90;;;;;;5034160;28;20045;-58
2023/05/28 05:04:56;;;;;;;17.33;10.00;;;9.00;99.90;;;;;;5034139;28;20080;-58
2023/05/28 05:07:23;;;;;;;16.48;9.68;;;9.10;99.90;;;;;;5034508;28;20543;-57
2023/05/28 05:09:51;;;;;;;20.02;10.10;;;9.20;99.90;;;;;;5034458;28;20044;-59
2023/05/28 05:12:17;;;;;;;17.65;9.90;;;9.40;99.90;;;;;;5017576;28;20057;-60
2023/05/28 05:14:44;;;;;;;18.88;10.82;;;9.50;99.90;;;;;;5033950;28;20053;-58
2023/05/28 05:17:12;;;;;;;26.52;11.38;;;9.60;99.90;;;;;;5033916;28;20041;-60
2023/05/28 05:19:39;;;;;;;17.70;10.05;;;9.60;99.90;;;;;;5034307;28;20156;-58
2023/05/28 05:22:07;;;;;;;15.63;9.68;;;9.80;99.90;;;;;;5034008;28;20075;-59
2023/05/28 05:24:36;;;;;;;16.20;9.63;;;9.90;99.90;;;;;;5033973;28;20107;-60
2023/05/28 05:27:03;;;;;;;15.23;8.90;;;10.00;99.90;;;;;;5035194;28;20038;-58
2023/05/28 05:29:29;;;;;;;17.55;10.82;;;10.10;99.90;;;;;;5033874;28;20041;-59
2023/05/28 05:31:57;;;;;;;15.50;10.32;;;10.30;99.90;;;;;;5034710;28;20543;-59
2023/05/28 05:34:25;;;;;;;17.70;9.93;;;10.30;99.90;;;;;;5033678;28;20099;-59
2023/05/28 05:37:10;;;;;;;18.80;10.10;;;10.40;99.90;;;;;;5034481;28;20058;-60
2023/05/28 05:40:10;;;;;;;17.02;9.73;;;10.50;99.90;;;;;;5033897;28;20049;-59
2023/05/28 05:43:06;;;;;;;19.83;10.15;;;10.80;99.90;;;;;;5015458;28;20050;-58
2023/05/28 05:45:33;;;;;;;19.38;9.90;;;11.00;99.90;;;;;;5033927;28;20440;-57
2023/05/28 05:48:00;;;;;;;16.95;9.98;;;11.20;99.90;;;;;;5034835;28;20073;-60
2023/05/28 05:50:27;;;;;;;20.02;10.32;;;11.50;99.90;;;;;;5033276;28;20049;-59
2023/05/28 05:52:54;;;;;;;16.45;9.60;;;11.60;99.90;;;;;;5033307;28;20038;-59
2023/05/28 05:55:21;;;;;;;16.38;9.68;;;11.80;99.90;;;;;;5033232;28;20128;-60
2023/05/28 05:57:49;;;;;;;17.20;9.18;;;12.00;99.90;;;;;;5033513;28;20034;-59
2023/05/28 06:00:17;;;;;;;19.85;9.90;;;12.00;99.90;;;;;;5033715;28;20064;-59
2023/05/28 06:02:48;;;;;;;20.17;10.25;;;12.00;99.90;;;;;;5033667;28;20500;-59
2023/05/28 06:05:35;;;;;;;17.20;9.65;;;12.00;99.90;;;;;;5033315;28;20111;-60
2023/05/28 06:08:22;;;;;;;20.13;10.13;;;11.90;99.90;;;;;;5034093;28;20060;-59
2023/05/28 06:11:00;;;;;;;17.08;9.45;;;12.00;99.90;;;;;;5033472;28;20045;-60
2023/05/28 06:13:27;;;;;;;18.92;10.23;;;11.90;99.90;;;;;;5032883;28;20059;-60
2023/05/28 06:15:54;;;;;;;18.35;9.82;;;11.90;99.90;;;;;;5032964;28;20047;-59
2023/05/28 06:18:23;;;;;;;17.60;10.48;;;11.90;99.90;;;;;;5033286;28;20068;-58
2023/05/28 06:20:50;;;;;;;18.38;10.02;;;11.80;99.90;;;;;;5032945;28;20060;-59
2023/05/28 06:23:17;;;;;;;19.27;10.10;;;11.90;99.90;;;;;;5033311;28;20373;-58
2023/05/28 06:25:45;;;;;;;18.58;11.23;;;11.90;99.90;;;;;;5032973;28;20050;-58
2023/05/28 06:28:13;;;;;;;20.10;10.43;;;11.90;99.90;;;;;;5016653;28;20079;-58
2023/05/28 06:30:40;;;;;;;21.90;10.77;;;11.80;99.90;;;;;;5032691;28;20048;-59
2023/05/28 06:33:09;;;;;;;19.85;10.10;;;11.90;99.90;;;;;;5032857;28;20053;-60
2023/05/28 06:35:36;;;;;;;19.60;9.45;;;11.80;99.90;;;;;;5033859;28;20091;-60
2023/05/28 06:38:04;;;;;;;17.05;9.80;;;11.90;99.90;;;;;;5032670;28;20041;-58
2023/05/28 06:40:31;;;;;;;21.95;9.32;;;11.90;99.90;;;;;;5032452;28;20041;-58
2023/05/28 06:43:00;;;;;;;20.45;9.35;;;11.90;99.90;;;;;;5033910;28;20053;-57
2023/05/28 06:45:53;;;;;;;17.50;9.20;;;11.80;99.90;;;;;;5031555;28;20066;-59
2023/05/28 06:48:22;;;;;;;19.95;9.57;;;11.80;99.90;;;;;;5032653;28;20055;-59
2023/05/28 06:50:49;;;;;;;18.17;9.25;;;11.70;99.90;;;;;;5032755;28;20041;-59
2023/05/28 06:53:16;;;;;;;24.67;9.73;;;11.80;99.90;;;;;;5033870;28;20045;-59
2023/05/28 06:55:44;;;;;;;17.77;8.57;;;11.90;99.90;;;;;;5032159;28;20185;-59
2023/05/28 06:58:29;;;;;;;17.45;8.93;;;11.90;99.90;;;;;;5033994;28;20072;-59
2023/05/28 07:01:15;;;;;;;;;;;11.90;99.90;;;;;;5034536;28;20519;-57
2023/05/28 07:04:05;;;;;;;17.02;8.50;;;12.00;99.90;;;;;;5033222;28;19967;-56
2023/05/28 07:06:44;;;;;;;20.63;8.75;;;12.00;99.90;;;;;;5032142;28;20060;-58
2023/05/28 07:09:23;;;;;;;18.92;8.77;;;12.10;99.90;;;;;;5032684;28;20045;-59
2023/05/28 07:11:50;;;;;;;16.30;7.47;;;12.20;99.90;;;;;;5033591;28;20061;-59
2023/05/28 07:14:17;;;;;;;20.08;8.43;;;12.20;99.90;;;;;;5033575;28;20069;-58
2023/05/28 07:16:44;;;;;;;18.42;8.27;;;12.30;99.90;;;;;;5032394;28;20046;-58
2023/05/28 07:19:11;;;;;;;15.73;7.28;;;12.40;99.90;;;;;;5032500;28;20092;-57
2023/05/28 07:21:38;;;;;;;14.82;7.35;;;12.40;99.90;;;;;;5032590;28;20062;-58
2023/05/28 07:24:05;;;;;;;16.75;6.82;;;12.50;99.90;;;;;;5023231;28;20048;-58
2023/05/28 07:26:33;;;;;;;15.32;5.93;;;12.60;99.90;;;;;;5019511;28;20053;-58
2023/05/28 07:29:02;;;;;;;14.52;5.38;;;12.70;99.90;;;;;;5023135;28;20377;-60
2023/05/28 07:31:31;;;;;;;14.18;5.25;;;12.80;99.90;;;;;;5032733;28;20042;-59
2023/05/28 07:33:59;;;;;;;11.23;4.25;;;12.90;99.90;;;;;;5031036;28;20117;-58
2023/05/28 07:36:31;;;;;;;10.43;4.68;;;12.90;99.80;;;;;;5031230;28;20041;-59
2023/05/28 07:38:58;;;;;;;10.73;4.47;;;13.00;99.90;;;;;;5029239;28;20115;-57
2023/05/28 07:41:25;;;;;;;8.68;4.03;;;13.00;99.40;;;;;;5031091;28;20044;-60
2023/05/28 07:44:11;;;;;;;7.80;3.67;;;13.00;99.00;;;;;;5032233;28;20507;-58
2023/05/28 07:46:37;;;;;;;9.50;4.15;;;13.10;98.30;;;;;;5031031;28;20423;-58
2023/05/28 07:49:10;;;;;;;9.82;3.80;;;13.20;98.50;;;;;;5031463;28;20132;-57
2023/05/28 07:51:47;;;;;;;8.70;3.53;;;13.20;98.30;;;;;;5031396;28;20048;-56
2023/05/28 07:54:20;;;;;;;7.93;3.42;;;13.30;98.60;;;;;;5031579;28;20076;-57
2023/05/28 07:56:48;;;;;;;8.48;3.60;;;13.40;97.90;;;;;;5031116;28;20056;-57
2023/05/28 07:59:23;;;;;;;6.45;3.55;;;13.50;97.30;;;;;;5031435;28;20033;-58
2023/05/28 08:01:51;;;;;;;7.50;3.05;;;13.50;96.70;;;;;;5034732;28;20060;-55
2023/05/28 08:04:18;;;;;;;5.05;2.90;;;13.60;95.90;;;;;;5035120;28;20041;-55
2023/05/28 08:06:46;;;;;;;6.95;3.00;;;13.60;95.90;;;;;;5034808;28;20125;-59
2023/05/28 08:09:17;;;;;;;7.72;3.55;;;13.70;95.80;;;;;;5034844;28;20051;-58
2023/05/28 08:11:48;;;;;;;6.07;3.05;;;13.70;95.20;;;;;;5034927;28;20049;-55
2023/05/28 08:14:17;;;;;;;7.70;3.58;;;13.70;95.50;;;;;;5034755;28;20041;-59
2023/05/28 08:16:46;;;;;;;5.85;3.30;;;13.80;95.10;;;;;;5034583;28;20091;-59
2023/05/28 08:19:46;;;;;;;4.57;2.70;;;13.80;94.80;;;;;;5032220;28;20037;-54
2023/05/28 08:22:48;;;;;;;5.97;3.03;;;13.90;94.20;;;;;;5034701;28;20409;-56
2023/05/28 08:25:15;;;;;;;5.05;3.00;;;13.90;94.00;;;;;;5034558;28;20103;-54
2023/05/28 08:27:43;;;;;;;5.45;2.67;;;14.00;94.10;;;;;;5034471;28;20132;-56
2023/05/28 08:30:10;;;;;;;5.97;2.88;;;14.10;94.70;;;;;;5035944;28;20033;-59
2023/05/28 08:32:44;;;;;;;5.18;2.75;;;14.20;93.40;;;;;;5034352;28;20091;-56
2023/05/28 08:35:12;;;;;;;6.25;2.60;;;14.20;92.40;;;;;;5035710;28;20045;-55
2023/05/28 08:37:39;;;;;;;4.75;2.67;;;14.20;92.50;;;;;;5035443;28;20064;-57
2023/05/28 08:40:11;;;;;;;5.05;2.92;;;14.30;91.70;;;;;;5034362;28;20132;-56
2023/05/28 08:42:39;;;;;;;5.20;2.53;;;14.30;92.40;;;;;;5034236;28;20072;-56
2023/05/28 08:45:06;;;;;;;3.88;2.38;;;14.40;91.90;;;;;;5034493;28;20041;-57
2023/05/28 08:47:35;;;;;;;7.20;2.72;;;14.50;92.00;;;;;;5034081;28;20049;-58
2023/05/28 08:50:17;;;;;;;5.35;2.42;;;14.50;91.90;;;;;;5034324;28;20046;-56
2023/05/28 08:53:02;;;;;;;4.60;2.55;;;14.60;91.50;;;;;;5036018;28;20503;-56
2023/05/28 08:55:30;;;;;;;4.13;1.90;;;14.70;91.10;;;;;;5033947;28;20073;-57
2023/05/28 08:58:09;;;;;;;5.97;2.42;;;14.80;90.50;;;;;;5034163;28;20048;-58
2023/05/28 09:00:36;;;;;;;3.83;2.28;;;14.80;89.80;;;;;;5033209;28;20539;-59
2023/05/28 09:03:32;;;;;;;3.25;2.20;;;14.90;89.40;;;;;;5025295;28;20049;-57
2023/05/28 09:06:09;;;;;;;2.85;1.90;;;15.00;89.40;;;;;;5032754;28;20577;-56
2023/05/28 09:08:37;;;;;;;6.13;2.25;;;15.10;86.70;;;;;;5032947;28;20607;-55
2023/05/28 09:11:05;;;;;;;3.10;1.83;;;15.20;85.70;;;;;;5033054;28;20033;-58
2023/05/28 09:13:33;;;;;;;3.88;1.73;;;15.20;81.50;;;;;;5033289;28;20518;-58
2023/05/28 09:16:00;;;;;;;4.47;1.63;;;15.20;80.00;;;;;;5035495;28;20048;-59
2023/05/28 09:18:27;;;;;;;2.65;1.70;;;15.40;80.80;;;;;;5034083;28;20045;-59
2023/05/28 09:20:54;;;;;;;2.78;1.85;;;15.40;82.30;;;;;;5032905;28;20057;-58
2023/05/28 09:23:24;;;;;;;3.72;2.13;;;15.50;81.10;;;;;;5032575;28;20050;-57
2023/05/28 09:26:16;;;;;;;3.80;2.10;;;15.60;79.40;;;;;;5033697;28;20536;-60
2023/05/28 09:28:52;;;;;;;3.83;2.03;;;15.60;81.10;;;;;;5032593;28;20103;-57
2023/05/28 09:31:19;;;;;;;4.63;1.95;;;15.80;80.50;;;;;;5032309;28;20047;-60
2023/05/28 09:33:46;;;;;;;2.60;1.77;;;15.80;80.30;;;;;;5033641;28;20037;-56
2023/05/28 09:36:13;;;;;;;6.68;2.08;;;15.80;81.10;;;;;;5033688;28;20041;-58
2023/05/28 09:38:40;;;;;;;3.10;2.10;;;15.90;80.00;;;;;;5035001;28;20045;-58
2023/05/28 09:41:09;;;;;;;5.30;2.08;;;16.00;77.90;;;;;;5035383;28;20424;-58
2023/05/28 09:43:36;;;;;;;3.95;2.47;;;16.00;77.60;;;;;;5033942;28;20371;-56
2023/05/28 09:46:03;;;;;;;4.90;2.50;;;16.00;78.30;;;;;;5034648;28;20045;-59
2023/05/28 09:48:30;;;;;;;3.70;2.50;;;16.10;77.60;;;;;;5033940;28;20049;-58
2023/05/28 09:50:57;;;;;;;4.07;3.00;;;16.20;77.60;;;;;;5033280;28;20045;-59
2023/05/28 09:53:25;;;;;;;3.72;2.83;;;16.30;77.70;;;;;;5034003;28;20041;-58
2023/05/28 09:55:52;;;;;;;4.18;2.47;;;16.40;78.30;;;;;;5035131;28;20061;-58
2023/05/28 09:58:19;;;;;;;6.13;2.55;;;16.40;76.70;;;;;;5034936;28;20041;-57
2023/05/28 10:00:47;;;;;;;4.20;2.65;;;16.40;77.80;;;;;;5034511;28;20043;-58
2023/05/28 10:03:14;;;;;;;5.40;3.28;;;16.50;77.30;;;;;;5033553;28;20045;-58
2023/05/28 10:05:42;;;;;;;3.88;3.13;;;16.60;77.10;;;;;;5034659;28;20376;-58
2023/05/28 10:08:08;;;;;;;5.93;4.20;;;16.80;77.10;;;;;;5034541;28;20049;-56
2023/05/28 10:10:35;;;;;;;6.13;3.63;;;16.90;74.90;;;;;;5034692;28;20039;-58
2023/05/28 10:13:02;;;;;;;4.63;3.75;;;17.00;76.20;;;;;;5034905;28;20045;-59
2023/05/28 10:15:29;;;;;;;5.72;4.10;;;17.00;74.80;;;;;;5034151;28;20132;-55
2023/05/28 10:17:56;;;;;;;7.10;5.60;;;17.10;74.40;;;;;;5034255;28;20095;-60
2023/05/28 10:20:23;;;;;;;7.30;5.10;;;17.10;72.80;;;;;;5034185;28;20103;-57
2023/05/28 10:22:50;;;;;;;8.57;4.80;;;17.10;74.00;;;;;;5032783;28;20124;-59
2023/05/28 10:25:18;;;;;;;6.20;5.13;;;17.20;73.70;;;;;;5034645;28;20045;-57
2023/05/28 10:27:45;;;;;;;7.68;5.20;;;17.30;75.70;;;;;;5034406;28;20045;-57
2023/05/28 10:30:12;;;;;;;6.78;5.63;;;17.40;74.20;;;;;;5032849;28;20534;-57
2023/05/28 10:32:40;;;;;;;8.27;6.30;;;17.50;74.00;;;;;;5034097;28;20038;-56
2023/05/28 10:35:08;;;;;;;7.95;6.40;;;17.70;72.70;;;;;;5033969;28;20048;-57
2023/05/28 10:37:35;;;;;;;8.05;6.18;;;17.80;72.10;;;;;;5033998;28;20045;-58
2023/05/28 10:40:02;;;;;;;7.18;6.07;;;17.80;72.00;;;;;;5033905;28;20069;-59
2023/05/28 10:42:29;;;;;;;10.88;6.15;;;17.80;73.10;;;;;;5034122;28;20042;-59
2023/05/28 10:44:57;;;;;;;7.72;6.93;;;17.80;72.70;;;;;;5034264;28;20125;-58
2023/05/28 10:47:23;;;;;;;8.13;7.00;;;17.80;73.00;;;;;;5033745;28;20099;-56
2023/05/28 10:49:50;;;;;;;9.40;6.57;;;17.90;71.50;;;;;;5034182;28;20087;-59
2023/05/28 10:52:25;;;;;;;9.68;7.72;;;18.00;73.60;;;;;;5033757;28;20048;-57
2023/05/28 10:54:52;;;;;;;9.35;7.75;;;18.10;71.80;;;;;;5032659;28;20481;-58
2023/05/28 10:57:19;;;;;;;9.32;7.32;;;18.10;71.60;;;;;;5033775;28;20150;-58
2023/05/28 10:59:47;;;;;;;9.15;7.55;;;18.10;72.10;;;;;;5033835;28;20041;-59
2023/05/28 11:02:14;;;;;;;11.40;8.40;;;18.10;72.00;;;;;;5033714;28;20037;-58
2023/05/28 11:04:41;;;;;;;9.40;7.25;;;18.20;72.80;;;;;;5032728;28;20437;-57
2023/05/28 11:07:08;;;;;;;9.38;8.05;;;18.30;72.20;;;;;;5033585;28;20080;-57
2023/05/28 11:09:36;;;;;;;8.85;7.65;;;18.30;72.60;;;;;;5016260;28;20068;-58
2023/05/28 11:12:02;;;;;;;12.65;8.90;;;18.40;73.20;;;;;;5033443;28;20041;-59
2023/05/28 11:14:30;;;;;;;9.77;8.40;;;18.40;73.80;;;;;;5033641;28;20076;-58
2023/05/28 11:16:57;;;;;;;12.70;9.85;;;18.50;73.60;;;;;;5033393;28;20049;-58
2023/05/28 11:19:23;;;;;;;11.45;8.98;;;18.60;73.00;;;;;;5033301;28;20041;-59
2023/05/28 11:21:51;;;;;;;15.23;9.27;;;18.70;72.00;;;;;;5033307;28;20504;-58
2023/05/28 11:24:18;;;;;;;12.80;9.70;;;18.80;70.60;;;;;;5033255;28;20049;-59
2023/05/28 11:26:45;;;;;;;12.57;9.57;;;18.80;71.10;;;;;;5031917;28;20053;-58
2023/05/28 11:29:12;;;;;;;11.98;10.13;;;18.80;72.00;;;;;;5033550;28;20042;-59
2023/05/28 11:31:40;;;;;;;12.30;9.93;;;18.80;72.50;;;;;;5020625;28;20564;-57
2023/05/28 11:34:07;;;;;;;11.25;9.40;;;18.90;72.00;;;;;;5013068;28;20034;-59
2023/05/28 11:36:35;;;;;;;12.45;9.80;;;18.90;73.30;;;;;;5016595;28;20052;-59
2023/05/28 11:39:02;;;;;;;11.10;9.77;;;18.90;72.90;;;;;;5017388;28;20440;-60
2023/05/28 11:41:32;;;;;;;11.93;9.77;;;19.00;73.30;;;;;;5017046;28;20042;-58
2023/05/28 11:43:59;;;;;;;11.10;9.15;;;19.00;72.30;;;;;;5016111;28;20424;-59
2023/05/28 11:46:26;;;;;;;10.32;9.10;;;19.10;72.60;;;;;;5015769;28;20413;-58
2023/05/28 11:48:53;;;;;;;12.18;9.50;;;19.20;71.90;;;;;;5016765;28;20042;-57
2023/05/28 11:51:20;;;;;;;11.02;8.80;;;19.10;71.40;;;;;;5016946;28;20121;-58
2023/05/28 11:53:47;;;;;;;12.40;8.82;;;19.20;71.10;;;;;;5015553;28;20096;-58
2023/05/28 11:56:14;;;;;;;9.75;8.73;;;19.30;71.50;;;;;;5016849;28;20088;-60
2023/05/28 11:58:43;;;;;;;12.82;8.50;;;19.30;71.20;;;;;;5016724;28;20065;-59
2023/05/28 12:01:09;;;;;;;10.10;8.65;;;19.30;70.40;;;;;;5015547;28;20048;-59
2023/05/28 12:03:36;;;;;;;10.98;8.90;;;19.40;69.00;;;;;;5016755;28;20129;-59
2023/05/28 12:06:04;;;;;;;10.20;8.40;;;19.50;69.00;;;;;;5020490;28;20095;-59
2023/05/28 12:08:31;;;;;;;12.15;9.80;;;19.50;67.00;;;;;;5035518;28;20068;-58
2023/05/28 12:10:58;;;;;;;13.43;9.07;;;19.50;67.90;;;;;;5036667;28;20072;-59
2023/05/28 12:13:25;;;;;;;11.98;9.35;;;19.50;68.90;;;;;;5036486;28;20048;-59
2023/05/28 12:15:52;;;;;;;12.20;8.75;;;19.50;68.40;;;;;;5035328;28;20485;-58
2023/05/28 12:18:19;;;;;;;11.48;9.00;;;19.60;69.40;;;;;;5036715;28;20041;-58
2023/05/28 12:20:46;;;;;;;11.55;8.10;;;19.60;68.50;;;;;;5035349;28;20080;-59
2023/05/28 12:23:13;;;;;;;9.98;7.68;;;19.70;69.50;;;;;;5036648;28;20132;-58
2023/05/28 12:25:40;;;;;;;15.23;9.00;;;19.70;68.30;;;;;;5036515;28;20054;-57
2023/05/28 12:28:07;;;;;;;9.32;8.13;;;19.70;69.80;;;;;;5036725;28;20052;-59
2023/05/28 12:31:00;;;;;;;10.32;8.07;;;19.80;70.40;;;;;;5041993;28;20049;-59
2023/05/28 12:33:27;;;;;;;11.48;8.73;;;19.90;70.50;;;;;;5041886;28;20068;-56
2023/05/28 12:35:56;;;;;;;8.48;7.53;;;19.80;71.10;;;;;;5040259;28;20052;-60
2023/05/28 12:38:23;;;;;;;8.70;7.80;;;19.90;69.60;;;;;;5040462;28;20045;-58
2023/05/28 12:40:50;;;;;;;9.25;7.30;;;20.00;68.80;;;;;;5034516;28;20480;-59
2023/05/28 12:43:17;;;;;;;11.50;7.57;;;20.00;64.60;;;;;;5034401;28;20076;-59
2023/05/28 12:45:46;;;;;;;9.73;7.88;;;20.00;63.40;;;;;;5034581;28;20462;-59
2023/05/28 12:48:13;;;;;;;10.02;7.22;;;20.10;64.20;;;;;;5036399;28;20041;-59
2023/05/28 12:50:40;;;;;;;12.25;7.45;;;20.10;63.30;;;;;;5035710;28;20045;-59